WetterOnline ( https://www.wetteronline.at )

Wetter aktuell Schkeuditz

Aktuelles Wetter: Leipzig/Halle (136m)

6-stündlich | Neueste Meldungen
Ortszeit Temperatur Wetter
Mo, 06.07. 2:00 20.8° C wolkenlos
So, 05.07. 20:00 26.0° C wolkig
So, 05.07. 14:00 23.8° C bewölkt
So, 05.07. 8:00 21.9° C bewölkt
So, 05.07. 2:00 21.6° C wolkig
Sa, 04.07. 20:00 24.1° C bewölkt
Sa, 04.07. 14:00 25.3° C leicht bewölkt
Sa, 04.07. 8:00 18.0° C leicht bewölkt
Ortszeit Temperatur Wetter
Mo, 06.07. 3:00 19.1° C leicht bewölkt
Mo, 06.07. 2:50 19.1° C fast wolkenlos
Mo, 06.07. 2:40 18.7° C fast wolkenlos
Mo, 06.07. 2:30 20.1° C leicht bewölkt
Mo, 06.07. 2:20 20.1° C leicht bewölkt
Mo, 06.07. 2:10 19.9° C wolkenlos
Mo, 06.07. 2:00 20.8° C wolkenlos
Mo, 06.07. 1:30 21.4° C fast wolkenlos
Mo, 06.07. 1:00 22.1° C leicht bewölkt
Mo, 06.07. 0:30 22.4° C wolkenlos
Mo, 06.07. 0:00 21.7° C fast wolkenlos
Ortszeit Relative Feuchte Sichtweite
Mo, 06.07. 2:00 67% 60 km
So, 05.07. 20:00 48% 70 km
So, 05.07. 14:00 58% 65 km
So, 05.07. 8:00 61% 65 km
So, 05.07. 2:00 52% 70 km
Sa, 04.07. 20:00 39% 55 km
Sa, 04.07. 14:00 37% 60 km
Sa, 04.07. 8:00 64% 60 km
Ortszeit Relative Feuchte Sichtweite
Mo, 06.07. 3:00 75% 60 km
Mo, 06.07. 2:50 75% -
Mo, 06.07. 2:40 77% -
Mo, 06.07. 2:30 71% 65 km
Mo, 06.07. 2:20 71% -
Mo, 06.07. 2:10 71% -
Mo, 06.07. 2:00 67% 60 km
Mo, 06.07. 1:30 65% >70 km
Mo, 06.07. 1:00 62% 60 km
Mo, 06.07. 0:30 61% >70 km
Mo, 06.07. 0:00 64% 60 km
Ortszeit Niederschlagsmenge Niederschlagsart
Mo, 06.07. 2:00 0.0 l/m2 in 6 Std. -
So, 05.07. 20:00 0.0 l/m2 in 12 Std. -
So, 05.07. 14:00 0.0 l/m2 in 6 Std. -
So, 05.07. 8:00 0.1 l/m2 in 12 Std. -
So, 05.07. 2:00 0.1 l/m2 in 6 Std. Regen
Sa, 04.07. 20:00 0.1 l/m2 in 12 Std. Schauer
Sa, 04.07. 14:00 0.0 l/m2 in 6 Std. -
Sa, 04.07. 8:00 0.0 l/m2 in 12 Std. -
Ortszeit Niederschlagsmenge Niederschlagsart
Mo, 06.07. 3:00 0.0 l/m2 in 1 Std. -
Mo, 06.07. 2:50 keine Meldung -
Mo, 06.07. 2:40 keine Meldung -
Mo, 06.07. 2:30 0.0 l/m2 in 1 Std. -
Mo, 06.07. 2:20 keine Meldung -
Mo, 06.07. 2:10 keine Meldung -
Mo, 06.07. 2:00 0.0 l/m2 in 1 Std. -
Mo, 06.07. 1:30 0.0 l/m2 in 1 Std. -
Mo, 06.07. 1:00 0.0 l/m2 in 1 Std. -
Mo, 06.07. 0:30 0.0 l/m2 in 1 Std. -
Mo, 06.07. 0:00 0.0 l/m2 in 1 Std. -
Ortszeit Stärke Spitze Richtung
km/h Bft. km/h Grad Sektor
Mo, 06.07. 2:00 25 4 43 250° W
So, 05.07. 20:00 32 5 61 240° SW
So, 05.07. 14:00 41 6 59 250° W
So, 05.07. 8:00 26 4 37 230° SW
So, 05.07. 2:00 22 4 43 220° SW
Sa, 04.07. 20:00 26 4 46 270° W
Sa, 04.07. 14:00 29 5 54 240° SW
Sa, 04.07. 8:00 18 3 25 230° SW
Ortszeit Stärke Spitze Richtung
km/h Bft. km/h Grad Sektor
Mo, 06.07. 3:00 14 3 25 240° SW
Mo, 06.07. 2:50 14 3 - 240° SW
Mo, 06.07. 2:40 13 3 - 240° SW
Mo, 06.07. 2:30 18 3 25 250° W
Mo, 06.07. 2:20 18 3 - 250° W
Mo, 06.07. 2:10 19 3 - 250° W
Mo, 06.07. 2:00 25 4 40 250° W
Mo, 06.07. 1:30 28 4 41 250° W
Mo, 06.07. 1:00 25 4 40 230° SW
Mo, 06.07. 0:30 30 5 39 230° SW
Mo, 06.07. 0:00 20 4 28 230° SW
Ortszeit Untergrenze Bedeckung Gattung
total tief tief mittel hoch
Mo, 06.07. 2:00 - 0/8 0/8 - - -
So, 05.07. 20:00 1800 m 6/8 6/8 Sc - -
So, 05.07. 14:00 1200 m 7/8 7/8 Sc - -
So, 05.07. 8:00 990 m 7/8 7/8 Sc - -
So, 05.07. 2:00 3000 m 8/8 7/8 - Ac -
Sa, 04.07. 20:00 1290 m 8/8 1/8 Sc As -
Sa, 04.07. 14:00 1800 m 5/8 3/8 Sc Ac -
Sa, 04.07. 8:00 6900 m 4/8 7/8 - - Ci
Ortszeit Bedeckungsgrad in Achtel und Wolkenuntergrenze
Mo, 06.07. 3:00 3(1200m)
Mo, 06.07. 2:50 1(2100m)
Mo, 06.07. 2:40 1(1500m) 1(2100m)
Mo, 06.07. 2:30 1(1080m) 1(2100m)
Mo, 06.07. 2:20 1(1080m) 2(2100m)
Mo, 06.07. 2:10 keine Wolken
Mo, 06.07. 2:00 keine Wolken
Mo, 06.07. 1:30 1(1500m)
Mo, 06.07. 1:00 1(1500m) 4(1500m) 4(2400m)
Mo, 06.07. 0:30 keine Wolken
Mo, 06.07. 0:00 1(1800m)
Ortszeit Luftdruck NN (hPa) Tendenz (hPa in 3 Std.)
Mo, 06.07. 2:00 1009 - 0,5
So, 05.07. 20:00 1009 - 1,0
So, 05.07. 14:00 1012 - 0,2
So, 05.07. 8:00 1012 - 0,2
So, 05.07. 2:00 1013 - 0,6
Sa, 04.07. 20:00 1014 - 0,3
Sa, 04.07. 14:00 1015 - 1,4
Sa, 04.07. 8:00 1017 + 0,4
Ortszeit Luftdruck NN (hPa) Tendenz (hPa in 3 Std.)
Mo, 06.07. 3:00 1009 - 0,1
Mo, 06.07. 2:50 1009 keine Meldung
Mo, 06.07. 2:40 1009 keine Meldung
Mo, 06.07. 2:30 1009 - 0,4
Mo, 06.07. 2:20 1009 keine Meldung
Mo, 06.07. 2:10 1009 keine Meldung
Mo, 06.07. 2:00 1009 - 0,5
Mo, 06.07. 1:30 1009 - 0,7
Mo, 06.07. 1:00 1009 - 0,8
Mo, 06.07. 0:30 1009 - 0,6
Mo, 06.07. 0:00 1009 - 0,2
Ortszeit Schneehöhe (cm)
Mo, 06.07. 2:00 0
So, 05.07. 20:00 0
So, 05.07. 14:00 0
So, 05.07. 8:00 0
So, 05.07. 2:00 0
Sa, 04.07. 20:00 0
Sa, 04.07. 14:00 0
Sa, 04.07. 8:00 0
Ortszeit Schneehöhe (cm)
Mo, 06.07. 3:00 -
Mo, 06.07. 2:50 -
Mo, 06.07. 2:40 -
Mo, 06.07. 2:30 -
Mo, 06.07. 2:20 -
Mo, 06.07. 2:10 -
Mo, 06.07. 2:00 0
Mo, 06.07. 1:30 -
Mo, 06.07. 1:00 -
Mo, 06.07. 0:30 -
Mo, 06.07. 0:00 -
Link zu dieser Seite / Seite empfehlen

Das Wetter in ...